sensor_id;sensor_type;location;lat;lon;timestamp;P1;durP1;ratioP1;P2;durP2;ratioP2
73321;SDS011;61549;37.044;22.128;2022-12-15T00:01:03;10.18;;;5.07;;
73321;SDS011;61549;37.044;22.128;2022-12-15T00:03:48;10.90;;;4.47;;
73321;SDS011;61549;37.044;22.128;2022-12-15T00:06:33;12.43;;;4.43;;
73321;SDS011;61549;37.044;22.128;2022-12-15T00:09:17;11.55;;;3.90;;
73321;SDS011;61549;37.044;22.128;2022-12-15T00:12:01;9.23;;;3.50;;
73321;SDS011;61549;37.044;22.128;2022-12-15T00:14:46;6.90;;;2.97;;
73321;SDS011;61549;37.044;22.128;2022-12-15T00:17:30;7.57;;;3.08;;
73321;SDS011;61549;37.044;22.128;2022-12-15T00:20:14;7.97;;;3.30;;
73321;SDS011;61549;37.044;22.128;2022-12-15T00:23:05;8.20;;;3.65;;
73321;SDS011;61549;37.044;22.128;2022-12-15T00:25:54;8.35;;;3.40;;
73321;SDS011;61549;37.044;22.128;2022-12-15T00:28:39;10.60;;;3.47;;
73321;SDS011;61549;37.044;22.128;2022-12-15T00:31:23;9.88;;;3.55;;
73321;SDS011;61549;37.044;22.128;2022-12-15T00:34:08;10.43;;;3.57;;
73321;SDS011;61549;37.044;22.128;2022-12-15T00:36:53;9.93;;;3.88;;
73321;SDS011;61549;37.044;22.128;2022-12-15T00:39:37;9.77;;;3.58;;
73321;SDS011;61549;37.044;22.128;2022-12-15T00:42:04;12.88;;;3.95;;
73321;SDS011;61549;37.044;22.128;2022-12-15T00:44:32;10.30;;;3.75;;
73321;SDS011;61549;37.044;22.128;2022-12-15T00:46:58;9.50;;;3.60;;
73321;SDS011;61549;37.044;22.128;2022-12-15T00:49:26;5.70;;;3.25;;
73321;SDS011;61549;37.044;22.128;2022-12-15T00:52:14;7.72;;;3.80;;
73321;SDS011;61549;37.044;22.128;2022-12-15T00:55:00;8.93;;;3.60;;
73321;SDS011;61549;37.044;22.128;2022-12-15T00:57:46;8.90;;;3.97;;
73321;SDS011;61549;37.044;22.128;2022-12-15T01:00:30;12.30;;;4.35;;
73321;SDS011;61549;37.044;22.128;2022-12-15T01:03:16;8.98;;;4.10;;
73321;SDS011;61549;37.044;22.128;2022-12-15T01:06:06;11.40;;;4.00;;
73321;SDS011;61549;37.044;22.128;2022-12-15T01:08:52;10.95;;;3.25;;
73321;SDS011;61549;37.044;22.128;2022-12-15T01:11:37;9.38;;;3.20;;
73321;SDS011;61549;37.044;22.128;2022-12-15T01:14:21;14.48;;;3.92;;
73321;SDS011;61549;37.044;22.128;2022-12-15T01:17:06;10.73;;;4.00;;
73321;SDS011;61549;37.044;22.128;2022-12-15T01:19:51;10.05;;;3.55;;
73321;SDS011;61549;37.044;22.128;2022-12-15T01:22:35;9.80;;;3.97;;
73321;SDS011;61549;37.044;22.128;2022-12-15T01:25:02;13.93;;;3.53;;
73321;SDS011;61549;37.044;22.128;2022-12-15T01:27:28;14.82;;;3.03;;
73321;SDS011;61549;37.044;22.128;2022-12-15T01:29:54;10.55;;;3.10;;
73321;SDS011;61549;37.044;22.128;2022-12-15T01:32:20;10.48;;;3.45;;
73321;SDS011;61549;37.044;22.128;2022-12-15T01:34:46;8.27;;;3.20;;
73321;SDS011;61549;37.044;22.128;2022-12-15T01:37:13;8.02;;;3.50;;
73321;SDS011;61549;37.044;22.128;2022-12-15T01:39:38;14.32;;;3.60;;
73321;SDS011;61549;37.044;22.128;2022-12-15T01:42:33;10.35;;;3.17;;
73321;SDS011;61549;37.044;22.128;2022-12-15T01:48:16;9.18;;;3.58;;
73321;SDS011;61549;37.044;22.128;2022-12-15T01:50:45;9.10;;;3.83;;
73321;SDS011;61549;37.044;22.128;2022-12-15T01:56:24;14.70;;;4.40;;
73321;SDS011;61549;37.044;22.128;2022-12-15T01:58:52;9.18;;;3.40;;
73321;SDS011;61549;37.044;22.128;2022-12-15T02:01:21;8.05;;;3.25;;
73321;SDS011;61549;37.044;22.128;2022-12-15T02:03:47;12.00;;;3.33;;
73321;SDS011;61549;37.044;22.128;2022-12-15T02:06:13;8.65;;;3.05;;
73321;SDS011;61549;37.044;22.128;2022-12-15T02:08:42;11.10;;;3.10;;
73321;SDS011;61549;37.044;22.128;2022-12-15T02:14:18;5.85;;;2.85;;
73321;SDS011;61549;37.044;22.128;2022-12-15T02:17:04;10.57;;;3.05;;
73321;SDS011;61549;37.044;22.128;2022-12-15T02:31:42;11.05;;;3.25;;
73321;SDS011;61549;37.044;22.128;2022-12-15T02:36:50;7.40;;;2.53;;
73321;SDS011;61549;37.044;22.128;2022-12-15T02:39:21;11.25;;;3.00;;
73321;SDS011;61549;37.044;22.128;2022-12-15T02:41:48;14.63;;;3.38;;
73321;SDS011;61549;37.044;22.128;2022-12-15T02:44:28;11.02;;;3.20;;
73321;SDS011;61549;37.044;22.128;2022-12-15T02:47:20;9.95;;;2.97;;
73321;SDS011;61549;37.044;22.128;2022-12-15T02:49:53;9.18;;;3.15;;
73321;SDS011;61549;37.044;22.128;2022-12-15T03:00:57;12.45;;;3.90;;
73321;SDS011;61549;37.044;22.128;2022-12-15T03:03:27;11.50;;;3.80;;
73321;SDS011;61549;37.044;22.128;2022-12-15T03:05:55;9.77;;;3.92;;
73321;SDS011;61549;37.044;22.128;2022-12-15T03:08:22;13.55;;;3.88;;
73321;SDS011;61549;37.044;22.128;2022-12-15T03:10:48;16.67;;;4.20;;
73321;SDS011;61549;37.044;22.128;2022-12-15T03:13:16;14.50;;;4.07;;
73321;SDS011;61549;37.044;22.128;2022-12-15T03:15:43;14.00;;;4.20;;
73321;SDS011;61549;37.044;22.128;2022-12-15T03:18:15;11.35;;;5.45;;
73321;SDS011;61549;37.044;22.128;2022-12-15T03:20:41;12.77;;;4.55;;
73321;SDS011;61549;37.044;22.128;2022-12-15T03:23:06;9.90;;;3.75;;
73321;SDS011;61549;37.044;22.128;2022-12-15T03:25:32;14.85;;;4.18;;
73321;SDS011;61549;37.044;22.128;2022-12-15T03:27:58;15.88;;;3.85;;
73321;SDS011;61549;37.044;22.128;2022-12-15T03:30:24;13.32;;;3.72;;
73321;SDS011;61549;37.044;22.128;2022-12-15T03:32:50;11.85;;;3.70;;
73321;SDS011;61549;37.044;22.128;2022-12-15T03:35:17;11.30;;;3.80;;
73321;SDS011;61549;37.044;22.128;2022-12-15T03:37:43;13.00;;;3.78;;
73321;SDS011;61549;37.044;22.128;2022-12-15T03:40:09;10.05;;;3.47;;
73321;SDS011;61549;37.044;22.128;2022-12-15T03:42:38;11.88;;;3.80;;
73321;SDS011;61549;37.044;22.128;2022-12-15T03:47:40;10.57;;;3.35;;
73321;SDS011;61549;37.044;22.128;2022-12-15T03:50:06;15.93;;;3.88;;
73321;SDS011;61549;37.044;22.128;2022-12-15T03:52:33;15.30;;;3.78;;
73321;SDS011;61549;37.044;22.128;2022-12-15T03:55:00;12.75;;;3.80;;
73321;SDS011;61549;37.044;22.128;2022-12-15T03:57:27;16.23;;;3.92;;
73321;SDS011;61549;37.044;22.128;2022-12-15T03:59:52;11.32;;;3.85;;
73321;SDS011;61549;37.044;22.128;2022-12-15T04:02:20;14.18;;;3.88;;
73321;SDS011;61549;37.044;22.128;2022-12-15T04:04:47;16.02;;;4.25;;
73321;SDS011;61549;37.044;22.128;2022-12-15T04:07:13;16.95;;;4.47;;
73321;SDS011;61549;37.044;22.128;2022-12-15T04:09:39;14.43;;;3.97;;
73321;SDS011;61549;37.044;22.128;2022-12-15T04:12:05;19.05;;;4.75;;
73321;SDS011;61549;37.044;22.128;2022-12-15T04:14:31;14.18;;;3.90;;
73321;SDS011;61549;37.044;22.128;2022-12-15T04:16:59;12.23;;;4.20;;
73321;SDS011;61549;37.044;22.128;2022-12-15T04:19:26;12.32;;;4.10;;
73321;SDS011;61549;37.044;22.128;2022-12-15T04:22:10;14.05;;;4.25;;
73321;SDS011;61549;37.044;22.128;2022-12-15T04:24:36;14.40;;;4.75;;
73321;SDS011;61549;37.044;22.128;2022-12-15T04:27:23;17.05;;;5.03;;
73321;SDS011;61549;37.044;22.128;2022-12-15T04:30:07;23.85;;;5.32;;
73321;SDS011;61549;37.044;22.128;2022-12-15T04:32:52;17.02;;;4.28;;
73321;SDS011;61549;37.044;22.128;2022-12-15T04:35:37;9.25;;;4.28;;
73321;SDS011;61549;37.044;22.128;2022-12-15T04:38:21;15.48;;;4.43;;
73321;SDS011;61549;37.044;22.128;2022-12-15T04:41:05;14.00;;;4.70;;
73321;SDS011;61549;37.044;22.128;2022-12-15T04:43:49;22.20;;;5.78;;
73321;SDS011;61549;37.044;22.128;2022-12-15T04:46:34;13.88;;;5.00;;
73321;SDS011;61549;37.044;22.128;2022-12-15T04:49:18;11.00;;;3.90;;
73321;SDS011;61549;37.044;22.128;2022-12-15T04:52:02;16.73;;;4.80;;
73321;SDS011;61549;37.044;22.128;2022-12-15T04:54:46;18.70;;;5.22;;
73321;SDS011;61549;37.044;22.128;2022-12-15T04:57:30;18.27;;;4.60;;
73321;SDS011;61549;37.044;22.128;2022-12-15T05:00:14;15.57;;;4.78;;
73321;SDS011;61549;37.044;22.128;2022-12-15T05:03:03;13.57;;;4.85;;
73321;SDS011;61549;37.044;22.128;2022-12-15T05:05:48;16.60;;;4.95;;
73321;SDS011;61549;37.044;22.128;2022-12-15T05:08:33;18.20;;;4.55;;
73321;SDS011;61549;37.044;22.128;2022-12-15T05:11:17;15.50;;;4.97;;
73321;SDS011;61549;37.044;22.128;2022-12-15T05:14:01;17.45;;;4.90;;
73321;SDS011;61549;37.044;22.128;2022-12-15T05:16:46;15.60;;;4.78;;
73321;SDS011;61549;37.044;22.128;2022-12-15T05:19:31;14.52;;;4.90;;
73321;SDS011;61549;37.044;22.128;2022-12-15T05:22:16;18.75;;;5.20;;
73321;SDS011;61549;37.044;22.128;2022-12-15T05:25:00;21.15;;;4.60;;
73321;SDS011;61549;37.044;22.128;2022-12-15T05:27:45;17.55;;;5.20;;
73321;SDS011;61549;37.044;22.128;2022-12-15T05:30:29;16.40;;;5.00;;
73321;SDS011;61549;37.044;22.128;2022-12-15T05:33:13;13.20;;;5.20;;
73321;SDS011;61549;37.044;22.128;2022-12-15T05:35:39;14.70;;;5.53;;
73321;SDS011;61549;37.044;22.128;2022-12-15T05:38:05;13.32;;;5.38;;
73321;SDS011;61549;37.044;22.128;2022-12-15T05:40:31;17.75;;;6.68;;
73321;SDS011;61549;37.044;22.128;2022-12-15T05:42:57;17.35;;;7.80;;
73321;SDS011;61549;37.044;22.128;2022-12-15T05:45:25;23.58;;;11.00;;
73321;SDS011;61549;37.044;22.128;2022-12-15T05:47:52;25.23;;;12.43;;
73321;SDS011;61549;37.044;22.128;2022-12-15T05:50:21;32.40;;;15.35;;
73321;SDS011;61549;37.044;22.128;2022-12-15T05:52:47;21.65;;;10.63;;
73321;SDS011;61549;37.044;22.128;2022-12-15T05:55:14;22.63;;;8.27;;
73321;SDS011;61549;37.044;22.128;2022-12-15T05:57:40;19.40;;;8.27;;
73321;SDS011;61549;37.044;22.128;2022-12-15T06:00:06;20.08;;;7.35;;
73321;SDS011;61549;37.044;22.128;2022-12-15T06:02:33;20.67;;;6.88;;
73321;SDS011;61549;37.044;22.128;2022-12-15T06:04:59;17.48;;;6.43;;
73321;SDS011;61549;37.044;22.128;2022-12-15T06:07:24;20.88;;;6.22;;
73321;SDS011;61549;37.044;22.128;2022-12-15T06:09:50;17.48;;;6.15;;
73321;SDS011;61549;37.044;22.128;2022-12-15T06:12:16;18.65;;;5.97;;
73321;SDS011;61549;37.044;22.128;2022-12-15T06:14:42;13.98;;;5.50;;
73321;SDS011;61549;37.044;22.128;2022-12-15T06:17:08;19.17;;;6.20;;
73321;SDS011;61549;37.044;22.128;2022-12-15T06:19:34;19.48;;;5.88;;
73321;SDS011;61549;37.044;22.128;2022-12-15T06:22:00;21.25;;;6.22;;
73321;SDS011;61549;37.044;22.128;2022-12-15T06:24:26;19.23;;;6.53;;
73321;SDS011;61549;37.044;22.128;2022-12-15T06:26:52;16.50;;;6.22;;
73321;SDS011;61549;37.044;22.128;2022-12-15T06:29:18;18.80;;;5.95;;
73321;SDS011;61549;37.044;22.128;2022-12-15T06:31:44;17.42;;;6.03;;
73321;SDS011;61549;37.044;22.128;2022-12-15T06:34:11;17.48;;;5.88;;
73321;SDS011;61549;37.044;22.128;2022-12-15T06:36:38;16.77;;;5.80;;
73321;SDS011;61549;37.044;22.128;2022-12-15T06:39:05;19.33;;;6.05;;
73321;SDS011;61549;37.044;22.128;2022-12-15T06:41:33;22.20;;;6.95;;
73321;SDS011;61549;37.044;22.128;2022-12-15T06:43:59;21.67;;;7.57;;
73321;SDS011;61549;37.044;22.128;2022-12-15T06:46:26;19.02;;;6.80;;
73321;SDS011;61549;37.044;22.128;2022-12-15T06:48:53;19.92;;;6.22;;
73321;SDS011;61549;37.044;22.128;2022-12-15T06:51:19;15.38;;;6.60;;
73321;SDS011;61549;37.044;22.128;2022-12-15T06:53:45;16.88;;;7.07;;
73321;SDS011;61549;37.044;22.128;2022-12-15T06:56:24;18.15;;;7.45;;
73321;SDS011;61549;37.044;22.128;2022-12-15T06:58:52;19.08;;;6.82;;
73321;SDS011;61549;37.044;22.128;2022-12-15T07:01:19;17.13;;;6.68;;
73321;SDS011;61549;37.044;22.128;2022-12-15T07:03:46;18.85;;;8.90;;
73321;SDS011;61549;37.044;22.128;2022-12-15T07:06:13;16.73;;;8.85;;
73321;SDS011;61549;37.044;22.128;2022-12-15T07:08:43;20.23;;;9.85;;
73321;SDS011;61549;37.044;22.128;2022-12-15T07:11:18;18.90;;;8.43;;
73321;SDS011;61549;37.044;22.128;2022-12-15T07:13:49;21.02;;;9.10;;
73321;SDS011;61549;37.044;22.128;2022-12-15T07:16:19;17.38;;;7.15;;
73321;SDS011;61549;37.044;22.128;2022-12-15T07:18:46;18.95;;;7.50;;
73321;SDS011;61549;37.044;22.128;2022-12-15T07:21:13;19.08;;;6.18;;
73321;SDS011;61549;37.044;22.128;2022-12-15T07:23:39;15.88;;;6.78;;
73321;SDS011;61549;37.044;22.128;2022-12-15T07:26:05;21.10;;;7.47;;
73321;SDS011;61549;37.044;22.128;2022-12-15T07:28:33;19.17;;;6.88;;
73321;SDS011;61549;37.044;22.128;2022-12-15T07:31:03;17.98;;;7.72;;
73321;SDS011;61549;37.044;22.128;2022-12-15T07:33:30;15.55;;;7.25;;
73321;SDS011;61549;37.044;22.128;2022-12-15T07:35:58;16.42;;;7.53;;
73321;SDS011;61549;37.044;22.128;2022-12-15T07:38:24;20.85;;;7.97;;
73321;SDS011;61549;37.044;22.128;2022-12-15T07:40:51;29.58;;;14.55;;
73321;SDS011;61549;37.044;22.128;2022-12-15T07:43:17;28.33;;;10.98;;
73321;SDS011;61549;37.044;22.128;2022-12-15T07:45:43;21.60;;;10.38;;
73321;SDS011;61549;37.044;22.128;2022-12-15T07:48:08;27.20;;;14.88;;
73321;SDS011;61549;37.044;22.128;2022-12-15T07:50:37;22.35;;;10.65;;
73321;SDS011;61549;37.044;22.128;2022-12-15T07:53:06;19.23;;;8.02;;
73321;SDS011;61549;37.044;22.128;2022-12-15T07:55:31;19.83;;;6.97;;
73321;SDS011;61549;37.044;22.128;2022-12-15T07:57:57;27.48;;;13.50;;
73321;SDS011;61549;37.044;22.128;2022-12-15T08:00:23;20.50;;;7.68;;
73321;SDS011;61549;37.044;22.128;2022-12-15T08:02:49;22.08;;;8.05;;
73321;SDS011;61549;37.044;22.128;2022-12-15T08:05:15;22.85;;;7.60;;
73321;SDS011;61549;37.044;22.128;2022-12-15T08:07:41;19.73;;;7.07;;
73321;SDS011;61549;37.044;22.128;2022-12-15T08:10:07;23.00;;;7.55;;
73321;SDS011;61549;37.044;22.128;2022-12-15T08:12:33;18.38;;;6.93;;
73321;SDS011;61549;37.044;22.128;2022-12-15T08:14:59;14.65;;;6.07;;
73321;SDS011;61549;37.044;22.128;2022-12-15T08:17:25;18.35;;;6.18;;
73321;SDS011;61549;37.044;22.128;2022-12-15T08:19:50;19.90;;;6.80;;
73321;SDS011;61549;37.044;22.128;2022-12-15T08:22:16;23.20;;;7.18;;
73321;SDS011;61549;37.044;22.128;2022-12-15T08:24:42;19.75;;;7.70;;
73321;SDS011;61549;37.044;22.128;2022-12-15T08:27:08;23.23;;;8.00;;
73321;SDS011;61549;37.044;22.128;2022-12-15T08:29:34;25.15;;;7.35;;
73321;SDS011;61549;37.044;22.128;2022-12-15T08:32:00;22.70;;;7.65;;
73321;SDS011;61549;37.044;22.128;2022-12-15T08:34:26;25.75;;;8.75;;
73321;SDS011;61549;37.044;22.128;2022-12-15T08:36:52;20.40;;;8.52;;
73321;SDS011;61549;37.044;22.128;2022-12-15T08:39:18;24.55;;;8.60;;
73321;SDS011;61549;37.044;22.128;2022-12-15T08:41:44;28.05;;;8.60;;
73321;SDS011;61549;37.044;22.128;2022-12-15T08:44:10;18.50;;;7.65;;
73321;SDS011;61549;37.044;22.128;2022-12-15T08:46:36;23.10;;;6.85;;
73321;SDS011;61549;37.044;22.128;2022-12-15T08:49:02;16.20;;;6.60;;
73321;SDS011;61549;37.044;22.128;2022-12-15T08:51:29;22.33;;;7.47;;
73321;SDS011;61549;37.044;22.128;2022-12-15T08:53:56;21.98;;;7.47;;
73321;SDS011;61549;37.044;22.128;2022-12-15T08:56:23;13.98;;;7.38;;
73321;SDS011;61549;37.044;22.128;2022-12-15T08:58:53;22.67;;;7.40;;
73321;SDS011;61549;37.044;22.128;2022-12-15T09:01:23;26.42;;;6.85;;
73321;SDS011;61549;37.044;22.128;2022-12-15T09:03:51;20.27;;;7.10;;
73321;SDS011;61549;37.044;22.128;2022-12-15T09:06:21;20.70;;;6.97;;
73321;SDS011;61549;37.044;22.128;2022-12-15T09:08:49;24.25;;;7.38;;
73321;SDS011;61549;37.044;22.128;2022-12-15T09:11:17;16.83;;;7.75;;
73321;SDS011;61549;37.044;22.128;2022-12-15T09:13:43;28.10;;;9.52;;
73321;SDS011;61549;37.044;22.128;2022-12-15T09:16:11;20.02;;;8.15;;
73321;SDS011;61549;37.044;22.128;2022-12-15T09:18:42;19.30;;;6.30;;
73321;SDS011;61549;37.044;22.128;2022-12-15T09:21:10;19.02;;;6.38;;
73321;SDS011;61549;37.044;22.128;2022-12-15T09:23:37;25.08;;;6.13;;
73321;SDS011;61549;37.044;22.128;2022-12-15T09:26:05;26.05;;;5.97;;
73321;SDS011;61549;37.044;22.128;2022-12-15T09:28:49;21.58;;;5.90;;
73321;SDS011;61549;37.044;22.128;2022-12-15T09:31:17;18.95;;;5.65;;
73321;SDS011;61549;37.044;22.128;2022-12-15T09:33:47;23.48;;;5.90;;
73321;SDS011;61549;37.044;22.128;2022-12-15T09:36:14;21.73;;;5.65;;
73321;SDS011;61549;37.044;22.128;2022-12-15T09:38:41;19.73;;;6.28;;
73321;SDS011;61549;37.044;22.128;2022-12-15T09:46:24;17.80;;;5.13;;
73321;SDS011;61549;37.044;22.128;2022-12-15T09:48:54;17.48;;;5.28;;
73321;SDS011;61549;37.044;22.128;2022-12-15T09:51:29;19.85;;;3.97;;
73321;SDS011;61549;37.044;22.128;2022-12-15T09:54:00;20.75;;;4.65;;
73321;SDS011;61549;37.044;22.128;2022-12-15T09:56:40;23.77;;;4.68;;
73321;SDS011;61549;37.044;22.128;2022-12-15T09:59:30;19.70;;;4.00;;
73321;SDS011;61549;37.044;22.128;2022-12-15T10:02:22;21.60;;;4.47;;
73321;SDS011;61549;37.044;22.128;2022-12-15T10:05:16;15.65;;;3.95;;
73321;SDS011;61549;37.044;22.128;2022-12-15T10:07:48;19.90;;;4.50;;
73321;SDS011;61549;37.044;22.128;2022-12-15T10:13:18;21.33;;;4.25;;
73321;SDS011;61549;37.044;22.128;2022-12-15T10:15:56;16.27;;;4.70;;
73321;SDS011;61549;37.044;22.128;2022-12-15T10:18:49;16.25;;;3.95;;
73321;SDS011;61549;37.044;22.128;2022-12-15T10:21:25;17.50;;;3.65;;
73321;SDS011;61549;37.044;22.128;2022-12-15T10:23:53;18.77;;;4.00;;
73321;SDS011;61549;37.044;22.128;2022-12-15T10:26:24;13.85;;;4.00;;
73321;SDS011;61549;37.044;22.128;2022-12-15T10:29:08;16.45;;;4.22;;
73321;SDS011;61549;37.044;22.128;2022-12-15T10:36:55;15.10;;;4.03;;
73321;SDS011;61549;37.044;22.128;2022-12-15T10:39:22;18.60;;;4.22;;
73321;SDS011;61549;37.044;22.128;2022-12-15T10:44:48;12.82;;;3.67;;
73321;SDS011;61549;37.044;22.128;2022-12-15T10:47:22;13.18;;;3.72;;
73321;SDS011;61549;37.044;22.128;2022-12-15T10:49:50;13.35;;;4.10;;
73321;SDS011;61549;37.044;22.128;2022-12-15T10:54:58;16.75;;;4.03;;
73321;SDS011;61549;37.044;22.128;2022-12-15T10:57:25;21.02;;;4.32;;
73321;SDS011;61549;37.044;22.128;2022-12-15T10:59:53;22.35;;;3.70;;
73321;SDS011;61549;37.044;22.128;2022-12-15T11:02:30;17.55;;;3.75;;
73321;SDS011;61549;37.044;22.128;2022-12-15T11:04:59;15.40;;;4.00;;
73321;SDS011;61549;37.044;22.128;2022-12-15T11:07:46;15.45;;;4.07;;
73321;SDS011;61549;37.044;22.128;2022-12-15T11:14:02;16.10;;;3.90;;
73321;SDS011;61549;37.044;22.128;2022-12-15T11:16:31;15.48;;;4.00;;
73321;SDS011;61549;37.044;22.128;2022-12-15T11:18:58;20.38;;;3.97;;
73321;SDS011;61549;37.044;22.128;2022-12-15T11:21:50;14.70;;;3.63;;
73321;SDS011;61549;37.044;22.128;2022-12-15T11:24:32;24.23;;;5.20;;
73321;SDS011;61549;37.044;22.128;2022-12-15T11:27:16;15.82;;;3.83;;
73321;SDS011;61549;37.044;22.128;2022-12-15T11:32:25;12.70;;;3.30;;
73321;SDS011;61549;37.044;22.128;2022-12-15T11:35:00;21.63;;;3.60;;
73321;SDS011;61549;37.044;22.128;2022-12-15T12:11:31;14.35;;;3.72;;
73321;SDS011;61549;37.044;22.128;2022-12-15T12:19:41;21.80;;;4.47;;
73321;SDS011;61549;37.044;22.128;2022-12-15T12:25:26;18.80;;;4.13;;
73321;SDS011;61549;37.044;22.128;2022-12-15T12:28:01;22.20;;;4.68;;
73321;SDS011;61549;37.044;22.128;2022-12-15T12:30:48;12.48;;;4.40;;
73321;SDS011;61549;37.044;22.128;2022-12-15T12:36:10;19.48;;;4.75;;
73321;SDS011;61549;37.044;22.128;2022-12-15T12:38:41;19.70;;;5.57;;
73321;SDS011;61549;37.044;22.128;2022-12-15T12:41:20;25.00;;;8.50;;
73321;SDS011;61549;37.044;22.128;2022-12-15T12:43:51;22.67;;;7.55;;
73321;SDS011;61549;37.044;22.128;2022-12-15T12:46:29;21.33;;;6.47;;
73321;SDS011;61549;37.044;22.128;2022-12-15T12:49:18;18.88;;;6.30;;
73321;SDS011;61549;37.044;22.128;2022-12-15T12:52:20;25.63;;;7.70;;
73321;SDS011;61549;37.044;22.128;2022-12-15T12:57:50;20.92;;;10.75;;
73321;SDS011;61549;37.044;22.128;2022-12-15T13:00:29;18.30;;;8.93;;
73321;SDS011;61549;37.044;22.128;2022-12-15T13:05:42;22.00;;;8.55;;
73321;SDS011;61549;37.044;22.128;2022-12-15T13:15:49;26.92;;;8.50;;
73321;SDS011;61549;37.044;22.128;2022-12-15T13:18:23;18.98;;;6.00;;
73321;SDS011;61549;37.044;22.128;2022-12-15T13:20:55;18.45;;;4.55;;
73321;SDS011;61549;37.044;22.128;2022-12-15T13:28:26;30.70;;;15.20;;
73321;SDS011;61549;37.044;22.128;2022-12-15T13:44:17;15.95;;;4.32;;
73321;SDS011;61549;37.044;22.128;2022-12-15T13:46:52;19.10;;;4.45;;
73321;SDS011;61549;37.044;22.128;2022-12-15T13:49:21;15.75;;;4.13;;
73321;SDS011;61549;37.044;22.128;2022-12-15T13:51:59;14.25;;;4.30;;
73321;SDS011;61549;37.044;22.128;2022-12-15T13:54:50;15.15;;;3.35;;
73321;SDS011;61549;37.044;22.128;2022-12-15T13:57:18;21.00;;;4.75;;
73321;SDS011;61549;37.044;22.128;2022-12-15T13:59:47;21.45;;;5.97;;
73321;SDS011;61549;37.044;22.128;2022-12-15T14:02:25;17.30;;;5.53;;
73321;SDS011;61549;37.044;22.128;2022-12-15T14:07:47;37.63;;;26.67;;
73321;SDS011;61549;37.044;22.128;2022-12-15T14:10:16;20.75;;;7.90;;
73321;SDS011;61549;37.044;22.128;2022-12-15T14:12:47;17.25;;;5.40;;
73321;SDS011;61549;37.044;22.128;2022-12-15T14:15:15;22.42;;;4.75;;
73321;SDS011;61549;37.044;22.128;2022-12-15T14:20:54;14.65;;;3.90;;
73321;SDS011;61549;37.044;22.128;2022-12-15T14:27:25;15.02;;;3.50;;
73321;SDS011;61549;37.044;22.128;2022-12-15T14:30:35;12.50;;;3.53;;
73321;SDS011;61549;37.044;22.128;2022-12-15T14:32:41;33.58;;;15.43;;
73321;SDS011;61549;37.044;22.128;2022-12-15T14:35:16;48.92;;;27.25;;
73321;SDS011;61549;37.044;22.128;2022-12-15T14:37:48;28.35;;;13.85;;
73321;SDS011;61549;37.044;22.128;2022-12-15T14:40:15;19.70;;;5.32;;
73321;SDS011;61549;37.044;22.128;2022-12-15T14:42:43;16.08;;;4.22;;
73321;SDS011;61549;37.044;22.128;2022-12-15T14:45:20;17.75;;;4.53;;
73321;SDS011;61549;37.044;22.128;2022-12-15T14:47:55;18.60;;;4.10;;
73321;SDS011;61549;37.044;22.128;2022-12-15T14:50:24;17.25;;;4.18;;
73321;SDS011;61549;37.044;22.128;2022-12-15T14:52:52;17.25;;;4.55;;
73321;SDS011;61549;37.044;22.128;2022-12-15T14:55:31;18.48;;;3.97;;
73321;SDS011;61549;37.044;22.128;2022-12-15T15:00:56;19.30;;;5.68;;
73321;SDS011;61549;37.044;22.128;2022-12-15T15:03:32;21.17;;;4.72;;
73321;SDS011;61549;37.044;22.128;2022-12-15T15:08:50;19.80;;;6.05;;
73321;SDS011;61549;37.044;22.128;2022-12-15T15:18:00;19.50;;;6.05;;
73321;SDS011;61549;37.044;22.128;2022-12-15T15:20:27;17.08;;;7.15;;
73321;SDS011;61549;37.044;22.128;2022-12-15T15:25:37;21.25;;;8.23;;
73321;SDS011;61549;37.044;22.128;2022-12-15T15:30:43;30.55;;;17.77;;
73321;SDS011;61549;37.044;22.128;2022-12-15T15:33:11;41.85;;;23.00;;
73321;SDS011;61549;37.044;22.128;2022-12-15T15:35:38;38.08;;;17.92;;
73321;SDS011;61549;37.044;22.128;2022-12-15T15:40:41;24.58;;;14.77;;
73321;SDS011;61549;37.044;22.128;2022-12-15T15:43:12;32.65;;;17.02;;
73321;SDS011;61549;37.044;22.128;2022-12-15T15:45:40;43.53;;;22.48;;
73321;SDS011;61549;37.044;22.128;2022-12-15T15:48:06;39.50;;;22.08;;
73321;SDS011;61549;37.044;22.128;2022-12-15T15:50:39;43.90;;;22.17;;
73321;SDS011;61549;37.044;22.128;2022-12-15T15:53:04;39.63;;;20.77;;
73321;SDS011;61549;37.044;22.128;2022-12-15T15:55:30;43.13;;;21.52;;
73321;SDS011;61549;37.044;22.128;2022-12-15T15:57:58;45.85;;;25.50;;
73321;SDS011;61549;37.044;22.128;2022-12-15T16:00:24;35.67;;;20.52;;
73321;SDS011;61549;37.044;22.128;2022-12-15T16:02:50;36.80;;;19.45;;
73321;SDS011;61549;37.044;22.128;2022-12-15T16:05:16;48.25;;;22.58;;
73321;SDS011;61549;37.044;22.128;2022-12-15T16:07:43;41.03;;;23.10;;
73321;SDS011;61549;37.044;22.128;2022-12-15T16:10:14;37.03;;;19.60;;
73321;SDS011;61549;37.044;22.128;2022-12-15T16:12:49;41.72;;;21.02;;
73321;SDS011;61549;37.044;22.128;2022-12-15T16:15:19;41.63;;;20.92;;
73321;SDS011;61549;37.044;22.128;2022-12-15T16:17:47;36.53;;;20.00;;
73321;SDS011;61549;37.044;22.128;2022-12-15T16:20:14;39.67;;;21.35;;
73321;SDS011;61549;37.044;22.128;2022-12-15T16:22:43;49.60;;;26.13;;
73321;SDS011;61549;37.044;22.128;2022-12-15T16:25:35;47.17;;;26.63;;
73321;SDS011;61549;37.044;22.128;2022-12-15T16:28:16;39.30;;;24.70;;
73321;SDS011;61549;37.044;22.128;2022-12-15T16:30:44;31.02;;;17.38;;
73321;SDS011;61549;37.044;22.128;2022-12-15T16:33:11;27.35;;;14.10;;
73321;SDS011;61549;37.044;22.128;2022-12-15T16:35:38;26.42;;;12.90;;
73321;SDS011;61549;37.044;22.128;2022-12-15T16:38:08;21.42;;;8.77;;
73321;SDS011;61549;37.044;22.128;2022-12-15T16:40:48;15.40;;;8.77;;
73321;SDS011;61549;37.044;22.128;2022-12-15T16:43:37;24.95;;;13.18;;
73321;SDS011;61549;37.044;22.128;2022-12-15T16:46:02;26.90;;;14.13;;
73321;SDS011;61549;37.044;22.128;2022-12-15T16:48:29;19.35;;;9.63;;
73321;SDS011;61549;37.044;22.128;2022-12-15T16:50:56;21.13;;;11.45;;
73321;SDS011;61549;37.044;22.128;2022-12-15T16:55:55;57.22;;;36.55;;
73321;SDS011;61549;37.044;22.128;2022-12-15T16:58:23;32.88;;;22.40;;
73321;SDS011;61549;37.044;22.128;2022-12-15T17:00:50;28.67;;;15.18;;
73321;SDS011;61549;37.044;22.128;2022-12-15T17:03:18;20.70;;;12.77;;
73321;SDS011;61549;37.044;22.128;2022-12-15T17:05:51;19.13;;;11.38;;
73321;SDS011;61549;37.044;22.128;2022-12-15T17:08:31;25.92;;;14.10;;
73321;SDS011;61549;37.044;22.128;2022-12-15T17:11:04;29.63;;;14.23;;
73321;SDS011;61549;37.044;22.128;2022-12-15T17:13:32;23.85;;;10.73;;
73321;SDS011;61549;37.044;22.128;2022-12-15T17:16:00;16.38;;;8.70;;
73321;SDS011;61549;37.044;22.128;2022-12-15T17:18:27;13.77;;;7.30;;
73321;SDS011;61549;37.044;22.128;2022-12-15T17:20:55;16.20;;;7.45;;
73321;SDS011;61549;37.044;22.128;2022-12-15T17:23:37;17.10;;;7.80;;
73321;SDS011;61549;37.044;22.128;2022-12-15T17:26:05;16.15;;;7.57;;
73321;SDS011;61549;37.044;22.128;2022-12-15T17:28:32;14.75;;;8.00;;
73321;SDS011;61549;37.044;22.128;2022-12-15T17:31:03;20.00;;;9.52;;
73321;SDS011;61549;37.044;22.128;2022-12-15T17:33:29;17.73;;;8.45;;
73321;SDS011;61549;37.044;22.128;2022-12-15T17:35:59;14.50;;;6.00;;
73321;SDS011;61549;37.044;22.128;2022-12-15T17:38:28;17.98;;;6.93;;
73321;SDS011;61549;37.044;22.128;2022-12-15T17:40:54;12.20;;;6.28;;